createdAt,value
2022-11-17T00:04:58.991Z,4.95
2022-11-17T00:10:00.695Z,4.60
2022-11-17T00:15:02.431Z,4.60
2022-11-17T00:20:24.652Z,4.50
2022-11-17T00:25:26.343Z,4.45
2022-11-17T00:30:46.729Z,4.10
2022-11-17T00:35:53.645Z,4.80
2022-11-17T00:40:55.301Z,4.45
2022-11-17T00:45:56.988Z,6.15
2022-11-17T00:51:03.698Z,5.45
2022-11-17T00:56:05.566Z,5.70
2022-11-17T01:01:07.503Z,5.47
2022-11-17T01:06:15.478Z,5.10
2022-11-17T01:11:19.568Z,5.18
2022-11-17T01:16:21.773Z,4.97
2022-11-17T01:21:25.491Z,4.65
2022-11-17T01:26:30.475Z,4.53
2022-11-17T01:31:35.158Z,4.53
2022-11-17T01:36:57.965Z,5.20
2022-11-17T01:42:04.621Z,4.20
2022-11-17T01:47:17.856Z,4.38
2022-11-17T01:52:19.559Z,4.43
2022-11-17T01:57:33.098Z,4.15
2022-11-17T02:02:35.794Z,3.22
2022-11-17T02:07:40.224Z,4.07
2022-11-17T02:12:41.986Z,3.67
2022-11-17T02:17:44.428Z,2.88
2022-11-17T02:23:14.721Z,2.80
2022-11-17T02:28:19.325Z,3.25
2022-11-17T02:33:46.512Z,3.05
2022-11-17T02:39:00.045Z,3.22
2022-11-17T02:44:16.366Z,3.30
2022-11-17T02:49:26.166Z,3.50
2022-11-17T02:54:31.337Z,3.25
2022-11-17T02:59:43.105Z,3.08
2022-11-17T03:05:22.154Z,2.85
2022-11-17T03:10:51.584Z,2.97
2022-11-17T03:16:10.228Z,3.00
2022-11-17T03:21:34.918Z,2.50
2022-11-17T03:26:40.527Z,2.40
2022-11-17T03:31:45.663Z,2.85
2022-11-17T03:36:52.015Z,2.22
2022-11-17T03:42:00.172Z,2.75
2022-11-17T03:47:05.105Z,2.75
2022-11-17T03:52:07.176Z,2.85
2022-11-17T03:57:25.624Z,2.58
2022-11-17T04:02:28.159Z,2.92
2022-11-17T04:07:29.918Z,3.08
2022-11-17T04:12:50.207Z,2.47
2022-11-17T04:17:51.905Z,2.80
2022-11-17T04:23:08.653Z,3.00
2022-11-17T04:28:28.579Z,2.53
2022-11-17T04:33:30.321Z,3.03
2022-11-17T04:38:32.255Z,2.90
2022-11-17T04:43:34.370Z,3.55
2022-11-17T04:48:36.585Z,3.95
2022-11-17T04:53:38.557Z,2.85
2022-11-17T04:58:41.048Z,3.30
2022-11-17T05:03:51.503Z,3.70
2022-11-17T05:08:55.743Z,3.70
2022-11-17T05:13:58.300Z,4.63
2022-11-17T05:19:00.058Z,4.05
2022-11-17T05:24:01.750Z,4.22
2022-11-17T05:29:06.111Z,4.20
2022-11-17T05:34:10.423Z,4.25
2022-11-17T05:39:12.273Z,4.97
2022-11-17T05:44:14.021Z,5.03
2022-11-17T05:49:15.757Z,4.22
2022-11-17T05:54:17.624Z,4.38
2022-11-17T05:59:43.487Z,4.28
2022-11-17T06:04:46.732Z,4.53
2022-11-17T06:09:48.478Z,6.00
2022-11-17T06:14:50.127Z,4.53
2022-11-17T06:20:01.628Z,4.38
2022-11-17T06:25:07.343Z,4.90
2022-11-17T06:30:09.377Z,4.80
2022-11-17T06:35:14.487Z,5.05
2022-11-17T06:40:16.383Z,4.95
2022-11-17T06:45:18.090Z,4.43
2022-11-17T06:50:20.420Z,4.60
2022-11-17T06:55:22.089Z,5.90
2022-11-17T07:00:23.874Z,5.18
2022-11-17T07:05:25.580Z,4.43
2022-11-17T07:10:28.509Z,5.63
2022-11-17T07:15:30.398Z,4.35
2022-11-17T07:20:32.073Z,4.15
2022-11-17T07:25:33.742Z,4.53
2022-11-17T07:30:36.327Z,4.85
2022-11-17T07:35:38.068Z,4.47
2022-11-17T07:40:40.670Z,4.38
2022-11-17T07:45:42.465Z,4.15
2022-11-17T07:50:44.188Z,4.57
2022-11-17T07:55:45.922Z,3.95
2022-11-17T08:00:47.680Z,4.20
2022-11-17T08:05:49.397Z,4.63
2022-11-17T08:10:51.176Z,4.30
2022-11-17T08:15:57.446Z,4.10
2022-11-17T08:21:05.318Z,5.60
2022-11-17T08:26:09.241Z,4.18
2022-11-17T08:31:12.019Z,4.97
2022-11-17T08:36:14.653Z,3.90
2022-11-17T08:41:16.400Z,4.15
2022-11-17T08:46:18.149Z,4.60
2022-11-17T08:51:21.508Z,4.55
2022-11-17T08:56:23.777Z,4.63
2022-11-17T09:01:25.478Z,4.05
2022-11-17T09:06:27.195Z,4.55
2022-11-17T09:11:28.896Z,4.47
2022-11-17T09:16:30.621Z,4.63
2022-11-17T09:21:33.950Z,5.47
2022-11-17T09:26:35.674Z,4.53
2022-11-17T09:31:37.911Z,4.53
2022-11-17T09:36:39.664Z,5.03
2022-11-17T09:41:46.852Z,5.28
2022-11-17T09:46:54.760Z,4.85
2022-11-17T09:52:00.619Z,5.15
2022-11-17T09:57:04.128Z,4.60
2022-11-17T10:02:10.838Z,3.88
2022-11-17T10:07:12.664Z,4.55
2022-11-17T10:12:25.790Z,6.60
2022-11-17T10:17:27.489Z,3.90
2022-11-17T10:22:36.288Z,3.65
2022-11-17T10:27:49.477Z,3.95
2022-11-17T10:33:00.169Z,4.13
2022-11-17T10:38:16.637Z,4.13
2022-11-17T10:43:25.701Z,3.13
2022-11-17T10:48:38.292Z,3.28
2022-11-17T10:53:46.696Z,3.53
2022-11-17T10:59:19.753Z,4.05
2022-11-17T11:04:31.840Z,3.95
2022-11-17T11:09:41.947Z,3.38
2022-11-17T11:14:56.588Z,3.05
2022-11-17T11:19:59.350Z,3.92
2022-11-17T11:25:39.728Z,3.53
2022-11-17T11:31:04.056Z,4.13
2022-11-17T11:36:15.082Z,4.30
2022-11-17T11:41:41.761Z,4.28
2022-11-17T11:47:25.428Z,4.57
2022-11-17T11:52:34.573Z,5.05
2022-11-17T11:57:43.162Z,4.78
2022-11-17T12:03:14.188Z,4.97
2022-11-17T12:08:30.066Z,4.68
2022-11-17T12:13:31.906Z,5.65
2022-11-17T12:18:34.055Z,6.78
2022-11-17T12:23:57.508Z,5.20
2022-11-17T12:29:28.666Z,5.70
2022-11-17T12:34:38.556Z,5.45
2022-11-17T12:40:07.240Z,5.97
2022-11-17T12:45:13.251Z,4.68
2022-11-17T12:50:19.182Z,4.18
2022-11-17T12:55:33.403Z,5.05
2022-11-17T13:00:47.758Z,4.72
2022-11-17T13:11:36.872Z,3.75
2022-11-17T13:16:48.733Z,3.85
2022-11-17T13:21:58.634Z,4.07
2022-11-17T13:27:02.703Z,4.18
2022-11-17T13:32:15.904Z,3.42
2022-11-17T13:37:23.845Z,3.40
2022-11-17T13:42:33.182Z,3.17
2022-11-17T13:47:39.248Z,3.75
2022-11-17T13:52:46.891Z,4.55
2022-11-17T13:58:26.947Z,4.50
2022-11-17T14:03:41.043Z,4.80
2022-11-17T14:09:02.165Z,4.57
2022-11-17T14:14:15.569Z,5.32
2022-11-17T14:19:19.135Z,5.43
2022-11-17T14:24:23.787Z,5.88
2022-11-17T14:29:30.763Z,5.18
2022-11-17T14:34:32.975Z,5.07
2022-11-17T14:39:34.758Z,5.60
2022-11-17T14:44:37.433Z,4.78
2022-11-17T14:49:40.393Z,4.93
2022-11-17T14:54:42.072Z,7.13
2022-11-17T14:59:44.120Z,5.47
2022-11-17T15:04:51.482Z,6.35
2022-11-17T15:09:55.784Z,5.75
2022-11-17T15:14:58.536Z,5.68
2022-11-17T15:20:01.375Z,5.10
2022-11-17T15:25:03.588Z,5.70
2022-11-17T15:30:05.940Z,6.13
2022-11-17T15:35:08.167Z,5.65
2022-11-17T15:40:13.922Z,5.80
2022-11-17T15:45:18.979Z,5.85
2022-11-17T15:50:23.094Z,5.60
2022-11-17T15:55:24.919Z,6.43
2022-11-17T16:00:26.689Z,5.65
2022-11-17T16:05:28.585Z,6.80
2022-11-17T16:10:32.239Z,7.03
2022-11-17T16:15:34.046Z,5.63
2022-11-17T16:20:36.282Z,6.07
2022-11-17T16:25:47.072Z,6.88
2022-11-17T16:30:48.820Z,6.65
2022-11-17T16:35:51.692Z,7.13
2022-11-17T16:40:53.353Z,6.57
2022-11-17T16:45:55.301Z,5.72
2022-11-17T16:50:57.722Z,5.70
2022-11-17T16:56:10.760Z,6.22
2022-11-17T17:01:17.792Z,7.40
2022-11-17T17:06:19.783Z,5.80
2022-11-17T17:11:22.752Z,6.20
2022-11-17T17:16:26.263Z,6.50
2022-11-17T17:21:29.680Z,6.28
2022-11-17T17:26:34.901Z,6.00
2022-11-17T17:31:41.041Z,5.40
2022-11-17T17:36:43.162Z,5.93
2022-11-17T17:41:46.018Z,5.55
2022-11-17T17:46:49.330Z,6.40
2022-11-17T17:51:53.376Z,6.18
2022-11-17T17:56:57.794Z,6.30
2022-11-17T18:01:59.682Z,5.95
2022-11-17T18:07:01.650Z,5.28
2022-11-17T18:12:03.672Z,6.22
2022-11-17T18:17:06.653Z,6.40
2022-11-17T18:22:08.453Z,6.50
2022-11-17T18:27:10.106Z,6.75
2022-11-17T18:32:11.799Z,6.07
2022-11-17T18:37:13.468Z,6.22
2022-11-17T18:42:15.754Z,7.22
2022-11-17T18:47:20.830Z,6.35
2022-11-17T18:52:27.084Z,7.65
2022-11-17T18:57:31.786Z,6.63
2022-11-17T19:02:34.089Z,7.20
2022-11-17T19:07:35.827Z,7.35
2022-11-17T19:12:38.827Z,8.15
2022-11-17T19:17:40.553Z,8.10
2022-11-17T19:22:42.236Z,8.45
2022-11-17T19:27:43.924Z,8.23
2022-11-17T19:32:45.618Z,8.52
2022-11-17T19:37:47.327Z,8.68
2022-11-17T19:42:51.765Z,8.43
2022-11-17T19:47:53.544Z,8.00
2022-11-17T19:52:56.616Z,8.85
2022-11-17T19:57:58.276Z,8.02
2022-11-17T20:02:59.918Z,8.18
2022-11-17T20:08:01.574Z,8.40
2022-11-17T20:13:03.261Z,7.30
2022-11-17T20:18:04.970Z,8.80
2022-11-17T20:23:08.535Z,9.02
2022-11-17T20:28:10.248Z,8.07
2022-11-17T20:33:11.968Z,8.07
2022-11-17T20:38:15.866Z,7.78
2022-11-17T20:43:17.681Z,8.20
2022-11-17T20:48:20.520Z,8.65
2022-11-17T20:53:22.443Z,7.95
2022-11-17T20:58:26.828Z,9.38
2022-11-17T21:03:28.508Z,9.55
2022-11-17T21:08:32.680Z,10.18
2022-11-17T21:13:36.098Z,8.85
2022-11-17T21:18:39.608Z,9.90
2022-11-17T21:23:42.181Z,9.95
2022-11-17T21:28:43.988Z,11.50
2022-11-17T21:33:46.101Z,10.57
2022-11-17T21:38:48.048Z,10.40
2022-11-17T21:43:51.180Z,11.55
2022-11-17T21:48:56.530Z,11.95
2022-11-17T21:54:00.216Z,10.35
2022-11-17T21:59:12.889Z,11.55
2022-11-17T22:04:15.861Z,11.80
2022-11-17T22:09:18.196Z,12.20
2022-11-17T22:14:21.833Z,12.25
2022-11-17T22:19:26.761Z,12.35
2022-11-17T22:24:28.462Z,11.73
2022-11-17T22:29:30.197Z,12.30
2022-11-17T22:34:31.888Z,12.30
2022-11-17T22:39:33.777Z,12.73
2022-11-17T22:44:36.515Z,13.13
2022-11-17T22:49:38.208Z,12.02
2022-11-17T22:54:40.032Z,13.48
2022-11-17T22:59:41.856Z,13.07
2022-11-17T23:04:43.516Z,14.55
2022-11-17T23:09:45.195Z,14.25
2022-11-17T23:14:46.877Z,15.82
2022-11-17T23:19:48.845Z,14.77
2022-11-17T23:24:52.133Z,14.85
2022-11-17T23:29:54.337Z,14.98
2022-11-17T23:34:57.039Z,15.05
2022-11-17T23:39:59.553Z,16.58
2022-11-17T23:45:01.268Z,15.20
2022-11-17T23:50:03.306Z,15.02
2022-11-17T23:55:05.677Z,15.25
